Latest Weather Observations for Cooktown

IDQ60801

Issued at 4:02 am EST Friday 9 December 2016 (issued every 30 minutes, with the page automatically refreshed every 10 minutes)

About weather observations | Map of weather stations | Latest weather observations for QLD | Other Formats
Station Details ID: 031209 Name: COOKTOWN AIRPORT Lat: -15.45 Lon: 145.19 Height: 4.8 m
Data from the previous 72 hours. | See also: Recent months at Cooktown
Date/Time
EST
Temp
°C
App
Temp
°C
Dew
Point
°C
Rel
Hum
%
Delta-T
°C
Wind Press
QNH
hPa
Press
MSL
hPa
Rain since
9am
mm
Dir  Spd
km/h
Gust
km/h
Spd
kts
Gust
kts
09/04:00am 26.0 27.6 21.5 76 3.0 E 15 20 8 11 1008.6 - 0.0
09/03:30am 25.9 28.4 21.7 77 2.8 ESE 11 17 6 9 1008.8 - 0.0
09/03:00am 26.1 27.5 21.9 77 2.8 E 17 20 9 11 1008.6 1008.4 0.0
09/02:30am 26.1 27.9 21.9 77 2.8 E 15 22 8 12 1008.6 - 0.0
09/02:00am 26.3 27.7 21.8 76 3.0 E 17 22 9 12 1008.7 - 0.0
09/01:30am 26.5 27.8 21.7 75 3.2 E 17 22 9 12 1008.8 - 0.0
09/01:00am 26.4 27.8 21.8 76 3.1 E 17 26 9 14 1009.0 - 0.0
09/12:30am 26.3 28.1 21.8 76 3.0 E 15 20 8 11 1009.2 - 0.0
09/12:00am 26.8 28.0 22.2 76 3.1 E 19 26 10 14 1009.4 1009.4 0.0
 
Date/Time
EST
Temp
°C
App
Temp
°C
Dew
Point
°C
Rel
Hum
%
Delta-T
°C
Wind Press
QNH
hPa
Press
MSL
hPa
Rain since
9am
mm
Dir  Spd
km/h
Gust
km/h
Spd
kts
Gust
kts
08/11:30pm 26.8 28.6 21.9 74 3.3 E 15 22 8 12 1009.9 - 0.0
08/11:00pm 26.5 28.2 21.7 75 3.2 E 15 20 8 11 1010.1 - 0.0
08/10:30pm 27.0 29.5 22.4 76 3.1 E 13 20 7 11 1010.2 - 0.0
08/10:00pm 27.0 28.9 22.1 74 3.3 E 15 20 8 11 1010.1 - 0.0
08/09:30pm 27.2 29.2 22.3 74 3.3 E 15 22 8 12 1010.0 - 0.0
08/09:00pm 26.6 29.1 22.5 78 2.8 E 13 19 7 10 1009.7 1009.5 0.0
08/08:30pm 26.9 28.8 22.1 75 3.2 E 15 22 8 12 1009.6 - 0.0
08/08:00pm 27.1 28.2 22.0 73 3.4 E 19 26 10 14 1009.4 - 0.0
08/07:30pm 27.3 29.6 22.7 76 3.1 E 15 20 8 11 1009.3 - 0.0
08/07:00pm 27.3 29.6 22.7 76 3.1 E 15 20 8 11 1009.0 - 0.0
08/06:30pm 27.7 28.8 21.9 70 3.9 E 19 26 10 14 1008.7 - 0.0
08/06:00pm 28.6 29.4 21.8 66 4.6 E 20 30 11 16 1008.2 1008.1 0.0
08/05:30pm 28.9 29.9 22.1 66 4.6 E 20 30 11 16 1008.0 - 0.0
08/05:00pm 29.4 29.7 22.3 65 4.8 E 24 33 13 18 1007.8 - 0.0
08/04:30pm 30.3 30.7 22.5 63 5.3 E 24 33 13 18 1007.6 - 0.0
08/04:00pm 29.6 29.1 22.1 64 5.1 E 28 35 15 19 1007.6 - 0.0
08/03:30pm 30.6 29.9 22.5 62 5.5 E 30 37 16 20 1007.7 - 0.0
08/03:00pm 31.9 31.9 22.4 57 6.5 E 26 37 14 20 1007.8 1007.8 0.0
08/02:30pm 30.8 30.6 22.1 59 5.9 E 26 37 14 20 1008.1 - 0.0
08/02:00pm 30.8 30.8 22.4 61 5.7 E 26 35 14 19 1008.3 - 0.0
08/01:30pm 31.0 30.8 22.0 58 6.1 E 26 39 14 21 1008.8 - 0.0
08/01:00pm 31.5 31.0 22.9 60 5.9 E 30 39 16 21 1008.9 - 0.0
08/12:30pm 30.9 31.1 22.7 61 5.6 E 26 35 14 19 1009.3 - 0.0
08/12:00pm 30.1 30.0 22.9 65 4.9 E 28 39 15 21 1009.5 1009.5 0.0
08/11:30am 31.5 32.0 22.6 59 6.1 ENE 24 32 13 17 1009.7 - 0.0
08/11:00am 31.9 33.0 23.0 59 6.1 E 22 32 12 17 1010.1 - 0.0
08/10:30am 31.4 31.9 23.3 62 5.6 E 26 35 14 19 1010.3 - 0.0
08/10:00am 30.6 30.9 22.9 63 5.3 E 26 33 14 18 1010.5 - 0.0
08/09:30am 30.3 31.0 23.0 65 5.0 E 24 33 13 18 1010.5 - 0.0
08/09:00am 29.5 30.7 23.2 69 4.3 ESE 22 30 12 16 1010.5 1010.4 3.2
08/08:30am 29.8 31.2 23.6 69 4.3 E 22 28 12 15 1010.5 - 3.2
08/08:00am 28.8 30.1 23.4 72 3.7 E 22 30 12 16 1010.4 - 3.2
08/07:30am 28.2 29.6 23.5 75 3.2 ESE 22 30 12 16 1010.2 - 3.2
08/07:00am 26.9 29.2 23.5 81 2.3 ESE 17 26 9 14 1010.0 - 3.2
08/06:30am 26.6 29.7 23.5 83 2.1 ESE 13 17 7 9 1009.9 - 3.2
08/06:00am 25.4 29.2 23.5 89 1.3 ESE 9 13 5 7 1009.5 1009.4 3.2
08/05:30am 25.3 28.7 23.4 89 1.3 ESE 11 15 6 8 1009.4 - 3.2
08/05:00am 24.8 28.3 23.5 92 0.9 ESE 11 13 6 7 1009.1 - 3.2
08/04:30am 25.5 29.3 23.4 88 1.4 ESE 9 11 5 6 1009.0 - 3.2
08/04:00am 25.7 29.7 23.7 89 1.4 SE 9 11 5 6 1009.1 - 3.2
08/03:30am 25.6 29.3 23.9 90 1.2 SE 11 15 6 8 1008.9 - 3.2
08/03:00am 25.5 29.3 24.0 91 1.0 ESE 11 13 6 7 1009.1 1009.0 3.2
08/02:30am 25.2 29.8 24.2 94 0.7 E 7 11 4 6 1009.2 - 3.0
08/02:15am 25.0 29.0 23.7 92 0.9 ESE 9 13 5 7 1009.2 - 3.0
08/02:01am 25.3 27.6 23.5 90 1.2 ESE 17 32 9 17 1009.4 - 3.0
08/02:00am 25.3 27.6 23.5 90 1.2 ESE 17 32 9 17 1009.4 - 3.0
08/01:57am 25.6 28.5 23.9 90 1.2 ESE 15 32 8 17 1009.4 - 2.8
08/01:30am 25.3 29.5 24.1 93 0.8 ESE 9 11 5 6 1009.6 - 2.6
08/01:17am 25.6 29.7 24.0 91 1.1 ESE 9 13 5 7 1009.7 - 2.6
08/01:11am 25.7 29.5 24.0 90 1.2 SE 11 17 6 9 1009.8 - 2.6
08/01:04am 25.8 29.1 23.9 89 1.3 SE 13 24 7 13 1009.9 - 2.6
08/01:00am 25.6 28.6 24.0 91 1.1 SE 15 28 8 15 1009.9 - 2.6
08/12:55am 25.8 28.7 23.9 89 1.3 SE 15 28 8 15 1009.9 - 2.4
08/12:46am 26.1 30.7 24.1 89 1.4 SE 7 13 4 7 1009.9 - 1.8
08/12:45am 26.1 30.7 24.1 89 1.4 SE 7 11 4 6 1009.9 - 1.8
08/12:30am 26.0 30.2 24.1 89 1.3 ESE 9 15 5 8 1010.3 - 1.8
08/12:00am 25.1 29.7 24.1 94 0.7 N 7 9 4 5 1010.5 1010.5 1.8
 
Date/Time
EST
Temp
°C
App
Temp
°C
Dew
Point
°C
Rel
Hum
%
Delta-T
°C
Wind Press
QNH
hPa
Press
MSL
hPa
Rain since
9am
mm
Dir  Spd
km/h
Gust
km/h
Spd
kts
Gust
kts
07/11:58pm 25.0 29.6 24.1 95 0.6 N 7 9 4 5 1010.5 - 1.8
07/11:41pm 25.2 28.6 24.0 93 0.8 ENE 13 19 7 10 1010.7 - 1.8
07/11:30pm 25.6 29.7 24.0 91 1.1 E 9 15 5 8 1010.8 - 1.2
07/11:00pm 26.1 30.1 24.4 90 1.2 ESE 11 17 6 9 1011.0 - 1.2
07/10:30pm 25.4 29.8 24.4 94 0.7 SSE 9 11 5 6 1011.0 - 1.2
07/10:09pm 25.4 29.2 24.1 92 0.9 SSE 11 19 6 10 1011.2 - 0.6
07/10:00pm 25.4 29.2 24.1 92 0.9 SSE 11 19 6 10 1011.2 - 0.6
07/09:30pm 25.5 29.1 23.7 90 1.2 SE 11 19 6 10 1011.1 - 0.6
07/09:00pm 25.1 29.6 23.9 93 0.8 ESE 7 9 4 5 1011.1 1011.0 0.6
07/08:30pm 25.6 29.8 23.5 88 1.4 SSE 7 13 4 7 1010.9 - 0.4
07/08:00pm 25.4 29.6 23.5 89 1.3 ESE 7 13 4 7 1010.8 - 0.4
07/07:44pm 25.1 29.1 23.8 92 0.9 E 9 13 5 7 1010.8 - 0.4
07/07:30pm 25.0 27.1 23.8 93 0.8 ESE 19 28 10 15 1010.8 - 0.2
07/07:22pm 25.4 26.0 23.5 89 1.3 ESE 26 41 14 22 1010.7 - 0.0
07/07:00pm 27.6 28.9 22.4 73 3.5 ESE 19 30 10 16 1010.3 - 0.0
07/06:30pm 27.6 29.4 21.9 71 3.8 SE 15 24 8 13 1010.1 - 0.0
07/06:00pm 28.2 29.2 21.1 65 4.7 ESE 17 30 9 16 1009.9 1009.7 0.0
07/05:30pm 28.2 28.3 21.8 68 4.3 ESE 24 33 13 18 1009.6 - 0.0
07/05:00pm 28.8 28.9 21.8 66 4.7 ESE 24 32 13 17 1009.5 - 0.0
07/04:30pm 31.7 30.5 21.6 55 6.8 ESE 30 37 16 20 1009.2 - 0.0
07/04:00pm 30.9 30.5 20.9 55 6.7 ESE 24 35 13 19 1009.3 - 0.0
07/03:30pm 31.0 30.0 21.2 56 6.6 E 28 37 15 20 1009.4 - 0.0
07/03:00pm 30.0 28.5 21.0 58 6.0 E 30 35 16 19 1009.4 1009.3 0.0
07/02:30pm 30.6 29.0 20.7 55 6.6 E 30 39 16 21 1009.6 - 0.0
07/02:00pm 30.8 28.8 19.9 52 7.2 E 30 35 16 19 1009.7 - 0.0
07/01:30pm 31.4 30.5 19.9 50 7.6 E 24 33 13 18 1010.0 - 0.0
07/01:00pm 31.2 30.5 19.6 50 7.6 E 22 30 12 16 1010.3 - 0.0
07/12:30pm 31.3 30.3 19.6 49 7.7 E 24 35 13 19 1010.6 - 0.0
07/12:00pm 31.6 29.6 19.2 47 8.1 E 28 35 15 19 1010.8 1010.7 0.0
07/11:30am 31.3 29.7 19.2 48 7.9 E 26 35 14 19 1011.1 - 0.0
07/11:00am 31.2 29.9 19.1 48 7.9 E 24 33 13 18 1011.2 - 0.0
07/10:30am 31.4 30.5 19.1 48 8.0 E 22 32 12 17 1011.4 - 0.0
07/10:00am 30.6 29.9 19.4 51 7.3 E 22 32 12 17 1011.4 - 0.0
07/09:30am 30.1 29.6 19.2 52 7.1 E 20 26 11 14 1011.7 - 0.0
07/09:00am 29.5 29.0 19.2 54 6.7 ESE 20 35 11 19 1011.7 1011.6 0.0
07/08:30am 30.2 29.3 19.1 51 7.2 E 22 32 12 17 1011.6 - 0.0
07/08:00am 29.4 28.5 18.1 50 7.2 E 20 28 11 15 1011.4 - 0.0
07/07:30am 28.7 28.5 18.6 54 6.5 ESE 17 24 9 13 1011.1 - 0.0
07/07:00am 28.1 28.5 18.2 55 6.3 ESE 13 19 7 10 1010.8 - 0.0
07/06:30am 27.0 28.3 18.5 59 5.4 ESE 9 13 5 7 1010.6 - 0.0
07/06:00am 25.7 25.8 18.3 63 4.7 ESE 15 20 8 11 1010.2 - 0.0
07/05:30am 25.8 25.1 17.3 59 5.3 E 17 24 9 13 1009.9 - 0.0
07/05:00am 25.8 25.0 18.4 63 4.7 E 20 24 11 13 1009.6 - 0.0
07/04:30am 26.1 24.8 18.2 61 5.0 E 22 32 12 17 1009.3 - 0.0
07/04:00am 26.0 26.3 19.5 67 4.2 ESE 17 24 9 13 1009.0 - 0.0
07/03:30am 26.5 25.0 17.8 58 5.5 ESE 22 39 12 21 1009.0 - 0.0
07/03:00am 26.3 25.5 17.0 56 5.8 ESE 17 24 9 13 1009.0 1008.8 0.0
07/02:30am 26.5 25.2 18.1 60 5.3 ESE 22 32 12 17 1008.9 - 0.0
07/02:00am 26.4 25.0 18.0 60 5.3 ESE 22 32 12 17 1009.1 - 0.0
07/01:30am 26.5 25.1 18.7 62 5.0 ESE 24 35 13 19 1009.5 - 0.0
07/01:00am 26.6 24.6 18.4 60 5.2 ESE 26 35 14 19 1009.7 - 0.0
07/12:30am 26.9 25.4 19.5 64 4.8 ESE 26 35 14 19 1010.0 - 0.0
07/12:00am 26.9 26.3 19.7 64 4.7 ESE 22 33 12 18 1010.3 1010.2 0.0
 
Date/Time
EST
Temp
°C
App
Temp
°C
Dew
Point
°C
Rel
Hum
%
Delta-T
°C
Wind Press
QNH
hPa
Press
MSL
hPa
Rain since
9am
mm
Dir  Spd
km/h
Gust
km/h
Spd
kts
Gust
kts
06/11:30pm 26.7 27.4 19.6 65 4.6 ESE 15 24 8 13 1010.8 - 0.0
06/11:00pm 26.7 26.3 19.4 64 4.7 ESE 20 30 11 16 1010.9 - 0.0
06/10:30pm 26.9 26.6 19.5 64 4.8 ESE 20 35 11 19 1011.1 - 0.0
06/10:00pm 26.7 27.0 20.4 68 4.1 ESE 19 26 10 14 1011.2 - 0.0
06/09:30pm 26.7 26.5 19.8 66 4.5 ESE 20 30 11 16 1011.0 - 0.0
06/09:00pm 26.5 27.3 20.7 70 3.8 ESE 17 28 9 15 1010.8 1010.7 0.0
06/08:30pm 26.8 27.6 20.7 69 4.0 ESE 17 28 9 15 1010.6 - 0.0
06/08:00pm 26.8 27.8 21.1 71 3.8 ESE 17 26 9 14 1010.6 - 0.0
06/07:30pm 27.0 28.6 21.4 71 3.7 ESE 15 22 8 12 1010.6 - 0.0
06/07:00pm 27.1 27.9 21.4 71 3.8 ESE 19 24 10 13 1010.4 - 0.0
06/06:30pm 27.6 28.7 21.3 68 4.2 SE 17 28 9 15 1010.2 - 0.0
06/06:00pm 28.4 29.0 21.0 64 4.9 SE 19 32 10 17 1010.0 1009.9 0.0
06/05:30pm 28.8 28.8 21.0 62 5.2 SE 22 37 12 20 1009.6 - 0.0
06/05:00pm 29.3 28.2 21.1 61 5.5 ESE 28 39 15 21 1009.4 - 0.0
06/04:30pm 29.6 28.4 20.0 56 6.3 ESE 26 39 14 21 1009.2 - 0.0
06/04:00pm 30.3 28.2 17.2 45 8.3 ESE 24 35 13 19 1009.3 - 0.0
06/03:30pm 30.6 28.5 18.0 47 8.1 ESE 26 39 14 21 1009.4 - 0.0
06/03:00pm 31.5 29.9 17.4 43 9.0 SE 22 39 12 21 1009.7 1009.6 0.0
06/02:30pm 31.6 29.6 17.5 43 9.0 ESE 24 35 13 19 1010.0 - 0.0
06/02:00pm 30.8 27.3 17.4 44 8.5 ESE 32 43 17 23 1010.5 - 0.0
06/01:30pm 32.0 28.9 18.4 44 8.8 E 32 43 17 23 1011.1 - 0.0
06/01:00pm 30.8 29.1 19.9 52 7.2 ESE 28 39 15 21 1011.6 - 0.0
06/12:30pm 31.5 29.2 18.5 46 8.4 ESE 28 41 15 22 1012.1 - 0.0
06/12:00pm 31.5 29.4 18.9 47 8.2 SE 28 41 15 22 1012.5 1012.4 0.0
06/11:30am 31.3 30.0 19.0 48 8.0 ESE 24 33 13 18 1012.9 - 0.0
06/11:00am 31.0 28.5 18.8 48 7.9 E 30 44 16 24 1013.1 - 0.0
06/10:30am 31.2 30.8 20.2 52 7.3 ESE 22 32 12 17 1013.4 - 0.0
06/10:00am 29.8 27.8 19.9 55 6.5 ESE 30 43 16 23 1013.6 - 0.0
06/09:30am 29.9 30.2 20.7 57 6.1 SE 20 33 11 18 1013.7 - 0.0
06/09:00am 30.1 28.1 19.2 52 7.1 E 28 43 15 23 1013.6 1013.4 0.0
06/08:30am 29.9 27.8 18.9 51 7.1 E 28 37 15 20 1013.6 - 0.0
06/08:00am 29.2 28.6 20.6 59 5.7 ESE 24 37 13 20 1013.2 - 0.0
06/07:30am 28.6 28.4 20.6 62 5.3 ESE 22 28 12 15 1012.9 - 0.0
06/07:00am 28.5 28.5 20.1 60 5.5 ESE 20 37 11 20 1012.8 - 0.0
06/06:30am 27.2 28.2 20.3 66 4.5 ESE 15 24 8 13 1012.7 - 0.0
06/06:00am 26.5 30.8 26.1 98 0.3 ESE 15 24 8 13 1012.0 1011.9 0.0
06/05:30am 26.3 30.5 25.9 98 0.3 ESE 15 20 8 11 1011.5 - 0.0
06/05:00am 26.2 30.1 25.5 96 0.5 ESE 15 28 8 15 1011.1 - 0.0
06/04:30am 26.3 29.1 25.0 92 0.9 ESE 19 28 10 15 1010.9 - 0.0

Other Formats:

Comma delimited format used in spreadsheet applications
http://www.bom.gov.au/fwo/IDQ60801/IDQ60801.95283.axf

JavaScript Object Notation format (JSON) in row-major order
http://www.bom.gov.au/fwo/IDQ60801/IDQ60801.95283.json